Time;durP1;ratioP1;P1;durP2;ratioP2;P2;SDS_P1;SDS_P2;PMS_P1;PMS_P2;Temp;Humidity;BMP_temperature;BMP_pressure;BME280_temperature;BME280_humidity;BME280_pressure;Samples;Min_cycle;Max_cycle;Signal;HPM_P1;HPM_P2
2022/01/26 00:05:46;;;;;;;1.70;0.93;;;19.50;49.50;;;;;;6149111;29;20157;-73
2022/01/26 00:07:51;;;;;;;1.40;0.95;;;19.50;49.50;;;;;;6106630;29;20035;-73
2022/01/26 00:10:52;;;;;;;0.93;0.82;;;19.50;49.50;;;;;;6148979;29;20363;-73
2022/01/26 00:13:53;;;;;;;0.90;0.80;;;19.60;49.50;;;;;;6149231;29;20031;-73
2022/01/26 00:16:54;;;;;;;1.08;0.98;;;19.60;49.50;;;;;;6149141;29;20030;-73
2022/01/26 00:20:03;;;;;;;1.02;0.65;;;19.50;50.20;;;;;;6149138;29;20485;-73
2022/01/26 00:24:06;;;;;;;1.20;0.90;;;19.50;49.50;;;;;;6147044;29;20051;-73
2022/01/26 00:26:31;;;;;;;1.60;1.00;;;19.50;49.50;;;;;;6142163;28;20038;-73
2022/01/26 00:29:36;;;;;;;1.27;0.88;;;19.50;49.50;;;;;;6172717;28;20031;-73
2022/01/26 00:39:16;;;;;;;1.00;0.80;;;19.50;49.50;;;;;;6173275;28;20030;-73
2022/01/26 00:42:17;;;;;;;1.15;0.95;;;19.50;49.50;;;;;;6155384;28;20528;-73
2022/01/26 00:45:22;;;;;;;1.05;0.80;;;19.50;49.50;;;;;;6147149;28;20031;-73
2022/01/26 00:48:24;;;;;;;;;;;19.50;49.50;;;;;;6149013;29;20031;-73
2022/01/26 00:51:24;;;;;;;1.10;0.88;;;19.50;49.50;;;;;;6158003;28;20361;-73
2022/01/26 00:54:27;;;;;;;0.90;0.85;;;19.50;49.50;;;;;;6172941;28;20066;-73
2022/01/26 00:57:27;;;;;;;1.00;0.90;;;19.50;49.50;;;;;;6172543;28;20505;-73
2022/01/26 01:00:29;;;;;;;1.17;0.82;;;19.50;49.50;;;;;;6169497;28;20037;-73
2022/01/26 01:03:33;;;;;;;1.02;0.80;;;19.50;49.50;;;;;;6171761;28;20050;-73
2022/01/26 01:06:43;;;;;;;0.65;0.60;;;19.50;49.40;;;;;;6172416;28;20139;-73
2022/01/26 01:09:44;;;;;;;0.90;0.80;;;19.50;49.50;;;;;;6172188;28;20031;-73
2022/01/26 01:12:45;;;;;;;1.02;0.80;;;19.50;49.50;;;;;;6172347;28;20034;-73
2022/01/26 01:15:48;;;;;;;1.85;1.13;;;19.50;49.50;;;;;;6173162;28;20113;-73
2022/01/26 01:28:55;;;;;;;0.98;0.80;;;19.50;49.50;;;;;;6157688;28;20051;-73
2022/01/26 01:31:51;;;;;;;1.10;0.85;;;19.50;49.50;;;;;;6151202;28;20125;-73
2022/01/26 01:34:51;;;;;;;1.13;0.90;;;19.50;49.50;;;;;;6177064;28;20477;-73
2022/01/26 01:37:52;;;;;;;1.13;0.80;;;19.50;49.60;;;;;;6177510;28;20411;-73
2022/01/26 01:40:52;;;;;;;0.90;0.70;;;19.50;49.50;;;;;;6163254;28;20058;-73
2022/01/26 01:43:53;;;;;;;1.00;0.75;;;19.50;49.50;;;;;;6152776;29;20047;-73
2022/01/26 01:46:55;;;;;;;0.90;0.80;;;19.50;49.40;;;;;;6149148;29;20464;-73
2022/01/26 01:49:56;;;;;;;0.75;0.70;;;19.50;49.50;;;;;;6152451;29;20027;-73
2022/01/26 01:53:01;;;;;;;0.93;0.60;;;19.50;49.50;;;;;;6172362;28;20151;-73
2022/01/26 01:56:02;;;;;;;0.85;0.80;;;19.50;49.50;;;;;;6176481;28;20111;-73
2022/01/26 01:59:02;;;;;;;0.85;0.70;;;19.50;49.50;;;;;;6175947;28;20031;-73
2022/01/26 02:02:03;;;;;;;1.05;0.93;;;19.50;49.50;;;;;;6176097;28;20050;-73
2022/01/26 02:05:04;;;;;;;0.50;0.50;;;19.50;49.50;;;;;;6175831;28;20054;-73
2022/01/26 02:08:05;;;;;;;0.73;0.73;;;19.50;49.60;;;;;;6174078;28;20042;-73
2022/01/26 02:11:07;;;;;;;0.90;0.80;;;19.50;49.60;;;;;;6176696;28;20019;-73
2022/01/26 02:14:13;;;;;;;0.70;0.70;;;19.50;49.50;;;;;;6175554;28;20046;-73
2022/01/26 02:49:34;;;;;;;0.98;0.70;;;19.50;49.50;;;;;;6174717;28;20448;-73
2022/01/26 02:53:50;;;;;;;0.70;0.70;;;19.40;49.50;;;;;;6149084;29;20062;-73
2022/01/26 02:57:11;;;;;;;0.75;0.70;;;19.50;49.70;;;;;;6147960;29;20035;-73
2022/01/26 03:00:23;;;;;;;1.10;0.70;;;19.40;49.50;;;;;;6147494;29;20047;-73
2022/01/26 03:03:29;;;;;;;0.68;0.68;;;19.40;49.60;;;;;;6150651;29;20031;-73
2022/01/26 03:06:39;;;;;;;0.60;0.60;;;19.40;49.40;;;;;;6150680;29;20031;-73
2022/01/26 03:09:59;;;;;;;0.70;0.60;;;19.40;49.50;;;;;;6150587;29;20042;-73
2022/01/26 03:13:14;;;;;;;1.23;0.73;;;19.40;49.50;;;;;;6147374;29;20075;-73
2022/01/26 03:16:54;;;;;;;0.73;0.70;;;19.40;49.50;;;;;;6150482;29;20043;-73
2022/01/26 03:19:49;;;;;;;0.65;0.60;;;19.40;49.50;;;;;;6146438;29;20036;-73
2022/01/26 03:30:27;;;;;;;0.70;0.70;;;19.40;49.50;;;;;;6173752;28;20039;-73
2022/01/26 03:33:09;;;;;;;1.40;0.70;;;19.40;49.40;;;;;;6165661;28;20039;-73
2022/01/26 03:36:12;;;;;;;1.65;1.10;;;19.40;49.50;;;;;;6173618;28;20049;-73
2022/01/26 03:39:16;;;;;;;0.77;0.70;;;19.40;49.50;;;;;;6173413;28;20034;-73
2022/01/26 03:42:16;;;;;;;0.82;0.70;;;19.40;49.50;;;;;;6156654;28;20371;-73
2022/01/26 03:45:17;;;;;;;0.70;0.70;;;19.40;49.60;;;;;;6149705;29;20042;-73
2022/01/26 03:48:17;;;;;;;0.75;0.70;;;19.40;49.60;;;;;;6146621;29;20032;-72
2022/01/26 03:51:18;;;;;;;0.57;0.57;;;19.40;49.50;;;;;;6149649;29;20143;-73
2022/01/26 03:54:20;;;;;;;0.65;0.65;;;19.40;49.40;;;;;;6149404;29;20046;-73
2022/01/26 03:57:21;;;;;;;0.73;0.73;;;19.40;49.50;;;;;;6146659;29;20461;-73
2022/01/26 04:00:37;;;;;;;0.60;0.60;;;19.40;49.50;;;;;;6149381;29;20049;-73
2022/01/26 04:03:37;;;;;;;0.68;0.60;;;19.40;49.50;;;;;;6149382;29;20027;-73
2022/01/26 04:06:38;;;;;;;0.95;0.70;;;19.40;49.50;;;;;;6146259;29;20036;-73
2022/01/26 04:09:39;;;;;;;0.70;0.60;;;19.40;49.60;;;;;;6149097;29;20023;-73
2022/01/26 04:12:40;;;;;;;0.70;0.70;;;19.40;49.50;;;;;;6149215;29;20060;-73
2022/01/26 04:15:40;;;;;;;0.73;0.68;;;19.40;49.50;;;;;;6149143;29;20034;-73
2022/01/26 04:18:42;;;;;;;0.75;0.70;;;19.40;49.40;;;;;;6149012;29;20039;-73
2022/01/26 04:24:58;;;;;;;;;;;19.40;49.50;;;;;;6149640;29;20074;-73
2022/01/26 04:28:04;;;;;;;0.73;0.60;;;19.40;49.50;;;;;;6165435;28;19910;-73
2022/01/26 04:31:05;;;;;;;0.60;0.55;;;19.40;49.50;;;;;;6172651;28;20034;-73
2022/01/26 04:34:05;;;;;;;0.65;0.65;;;19.40;49.50;;;;;;6166419;28;20042;-73
2022/01/26 04:37:16;;;;;;;0.70;0.65;;;19.40;49.50;;;;;;6148586;28;20023;-73
2022/01/26 04:40:18;;;;;;;1.00;0.70;;;19.40;49.50;;;;;;6145321;28;20478;-73
2022/01/26 04:43:23;;;;;;;0.73;0.70;;;19.40;49.40;;;;;;6148697;29;20460;-73
2022/01/26 04:46:26;;;;;;;0.52;0.52;;;19.40;49.50;;;;;;6148746;29;20094;-73
2022/01/26 04:49:26;;;;;;;0.70;0.65;;;19.40;49.60;;;;;;6148603;29;20031;-73
2022/01/26 04:52:27;;;;;;;0.95;0.70;;;19.40;49.60;;;;;;6147948;29;20280;-73
2022/01/26 04:55:27;;;;;;;0.98;0.80;;;19.40;49.50;;;;;;6149025;29;20122;-73
2022/01/26 04:58:28;;;;;;;0.70;0.60;;;19.40;49.50;;;;;;6148503;29;20058;-73
2022/01/26 05:01:29;;;;;;;0.95;0.80;;;19.40;49.50;;;;;;6145604;29;20051;-74
2022/01/26 05:04:29;;;;;;;1.13;0.77;;;19.40;49.50;;;;;;6145880;28;20047;-73
2022/01/26 05:07:30;;;;;;;1.00;0.80;;;19.40;49.50;;;;;;6148627;29;20031;-73
2022/01/26 05:10:30;;;;;;;0.95;0.75;;;19.40;49.40;;;;;;6145291;29;20106;-73
2022/01/26 05:13:31;;;;;;;0.90;0.70;;;19.40;49.40;;;;;;6145123;29;20122;-73
2022/01/26 05:16:32;;;;;;;1.20;0.82;;;19.40;49.40;;;;;;6158568;28;20398;-73
2022/01/26 05:19:32;;;;;;;0.98;0.50;;;19.40;49.50;;;;;;6154496;28;20041;-73
2022/01/26 05:22:33;;;;;;;0.65;0.50;;;19.40;49.40;;;;;;6172245;28;20133;-73
2022/01/26 05:25:34;;;;;;;0.77;0.70;;;19.40;49.50;;;;;;6172241;28;20035;-73
2022/01/26 05:28:34;;;;;;;0.65;0.65;;;19.40;49.50;;;;;;6149020;28;20082;-73
2022/01/26 05:31:35;;;;;;;0.98;0.73;;;19.40;49.50;;;;;;6148120;28;20042;-73
2022/01/26 05:34:35;;;;;;;0.60;0.60;;;19.40;49.50;;;;;;6143165;29;20059;-73
2022/01/26 05:37:36;;;;;;;0.90;0.70;;;19.40;49.50;;;;;;6144833;29;20494;-73
2022/01/26 05:40:36;;;;;;;0.80;0.60;;;19.40;49.50;;;;;;6147493;29;20167;-73
2022/01/26 05:43:37;;;;;;;0.60;0.60;;;19.40;49.50;;;;;;6130878;29;20043;-73
2022/01/26 05:46:45;;;;;;;0.63;0.60;;;19.40;49.50;;;;;;6130761;29;20086;-73
2022/01/26 05:49:46;;;;;;;0.85;0.70;;;19.40;49.50;;;;;;6146614;29;20507;-73
2022/01/26 05:52:47;;;;;;;0.68;0.57;;;19.40;49.50;;;;;;6144669;29;20337;-73
2022/01/26 05:55:53;;;;;;;0.73;0.73;;;19.40;49.50;;;;;;6148204;29;20038;-73
2022/01/26 05:58:54;;;;;;;0.60;0.50;;;19.40;49.50;;;;;;6144829;29;20027;-73
2022/01/26 06:01:55;;;;;;;0.50;0.50;;;19.40;49.50;;;;;;6156917;28;20031;-73
2022/01/26 06:04:55;;;;;;;1.25;0.65;;;19.40;49.50;;;;;;6172512;28;20117;-73
2022/01/26 06:07:56;;;;;;;0.70;0.70;;;19.40;49.50;;;;;;6159861;28;20041;-73
2022/01/26 06:10:58;;;;;;;0.60;0.60;;;19.40;49.50;;;;;;6175643;28;20473;-73
2022/01/26 06:13:58;;;;;;;1.08;0.73;;;19.40;49.50;;;;;;6175905;28;20054;-73
2022/01/26 06:16:59;;;;;;;0.60;0.60;;;19.40;49.50;;;;;;6175711;28;20485;-73
2022/01/26 06:20:00;;;;;;;1.35;0.82;;;19.40;49.50;;;;;;6175540;28;20105;-73
2022/01/26 06:23:02;;;;;;;0.63;0.60;;;19.40;49.50;;;;;;6175590;28;20106;-73
2022/01/26 06:26:02;;;;;;;0.80;0.57;;;19.50;49.60;;;;;;6175683;28;20035;-73
2022/01/26 06:29:03;;;;;;;0.65;0.50;;;19.50;49.60;;;;;;6172090;28;20038;-73
2022/01/26 06:32:05;;;;;;;0.50;0.50;;;19.40;49.50;;;;;;6174686;28;20386;-73
2022/01/26 06:35:09;;;;;;;0.50;0.50;;;19.50;49.60;;;;;;6157366;28;20637;-73
2022/01/26 06:38:09;;;;;;;0.70;0.60;;;19.50;49.60;;;;;;6175132;28;20035;-73
2022/01/26 06:41:11;;;;;;;0.93;0.70;;;19.50;49.60;;;;;;6166935;28;20302;-73
2022/01/26 06:44:24;;;;;;;0.77;0.70;;;19.50;49.60;;;;;;6151300;29;20038;-73
2022/01/26 06:50:25;;;;;;;0.63;0.60;;;19.50;49.70;;;;;;6149350;29;20039;-73
2022/01/26 06:53:26;;;;;;;0.60;0.60;;;19.50;49.70;;;;;;6133691;29;20519;-73
2022/01/26 06:56:27;;;;;;;0.52;0.52;;;19.50;50.00;;;;;;6150946;29;20461;-73
2022/01/26 06:59:27;;;;;;;0.40;0.40;;;19.50;49.60;;;;;;6149321;28;20039;-73
2022/01/26 07:02:28;;;;;;;0.60;0.60;;;19.50;49.70;;;;;;6171101;28;20429;-73
2022/01/26 07:05:28;;;;;;;1.10;0.60;;;19.50;49.70;;;;;;6174820;28;20030;-73
2022/01/26 07:08:29;;;;;;;0.68;0.68;;;19.50;49.70;;;;;;6174681;28;20068;-73
2022/01/26 07:11:30;;;;;;;1.95;0.70;;;19.50;49.60;;;;;;6171895;28;20428;-73
2022/01/26 07:21:27;;;;;;;0.85;0.60;;;19.50;49.70;;;;;;6175299;28;20130;-73
2022/01/26 07:24:28;;;;;;;0.93;0.82;;;19.50;49.70;;;;;;6171545;28;20505;-73
2022/01/26 07:27:28;;;;;;;1.08;0.70;;;19.50;49.70;;;;;;6174140;28;20033;-73
2022/01/26 07:30:30;;;;;;;0.77;0.70;;;19.50;49.70;;;;;;6156827;28;20099;-73
2022/01/26 07:33:32;;;;;;;1.02;0.70;;;19.50;49.80;;;;;;6174013;28;20081;-73
2022/01/26 07:36:32;;;;;;;1.50;0.60;;;19.50;49.70;;;;;;6173787;28;20111;-73
2022/01/26 07:39:43;;;;;;;1.13;0.75;;;19.50;49.80;;;;;;6175293;28;20030;-73
2022/01/26 07:42:44;;;;;;;0.73;0.73;;;19.50;49.80;;;;;;6148684;28;20074;-73
2022/01/26 07:45:44;;;;;;;0.88;0.60;;;19.50;49.80;;;;;;6170089;28;20392;-73
2022/01/26 07:48:45;;;;;;;1.45;0.93;;;19.50;49.70;;;;;;6170982;28;20660;-73
2022/01/26 07:51:48;;;;;;;0.93;0.73;;;19.50;49.80;;;;;;6172519;28;20027;-73
2022/01/26 07:54:51;;;;;;;1.38;0.90;;;19.50;49.80;;;;;;6155166;28;20046;-73
2022/01/26 07:57:54;;;;;;;0.98;0.88;;;19.50;49.80;;;;;;6171196;28;20035;-73
2022/01/26 08:00:54;;;;;;;1.10;0.80;;;19.50;49.80;;;;;;6159355;28;20117;-73
2022/01/26 08:03:55;;;;;;;1.10;0.90;;;19.50;49.80;;;;;;6160371;28;20031;-74
2022/01/26 08:06:55;;;;;;;1.27;0.80;;;19.40;49.80;;;;;;6171702;28;20066;-74
2022/01/26 08:09:56;;;;;;;1.77;0.90;;;19.50;49.80;;;;;;6171575;28;20657;-73
2022/01/26 08:12:56;;;;;;;0.98;0.80;;;19.50;49.80;;;;;;6172158;28;20066;-73
2022/01/26 08:15:57;;;;;;;1.30;0.70;;;19.50;49.70;;;;;;6170276;28;20378;-73
2022/01/26 08:18:57;;;;;;;1.20;0.95;;;19.50;49.70;;;;;;6169876;28;20034;-73
2022/01/26 08:22:00;;;;;;;1.45;1.00;;;19.50;49.70;;;;;;6171745;28;20098;-73
2022/01/26 08:25:01;;;;;;;1.23;1.08;;;19.50;49.80;;;;;;6171041;28;20485;-73
2022/01/26 08:28:19;;;;;;;0.95;0.85;;;19.50;49.80;;;;;;6171760;28;20030;-73
2022/01/26 08:31:20;;;;;;;0.90;0.80;;;19.50;49.80;;;;;;6171647;28;20042;-73
2022/01/26 08:34:20;;;;;;;0.73;0.70;;;19.50;49.80;;;;;;6169527;28;20035;-74
2022/01/26 08:37:21;;;;;;;0.95;0.75;;;19.50;49.80;;;;;;6169505;28;20026;-74
2022/01/26 08:40:22;;;;;;;0.98;0.80;;;19.50;50.40;;;;;;6171793;28;20058;-73
2022/01/26 08:43:22;;;;;;;0.90;0.80;;;19.50;49.80;;;;;;6170545;28;20029;-73
2022/01/26 08:46:23;;;;;;;1.85;1.25;;;19.50;49.80;;;;;;6172995;28;20035;-72
2022/01/26 08:54:59;;;;;;;5.53;1.02;;;19.60;49.10;;;;;;6272706;28;20415;-74
2022/01/26 08:57:59;;;;;;;1.67;0.82;;;19.50;49.70;;;;;;6214913;28;20092;-74
2022/01/26 09:01:00;;;;;;;3.63;0.75;;;19.50;49.70;;;;;;6217369;28;20121;-73
2022/01/26 09:04:01;;;;;;;1.92;0.98;;;19.60;50.00;;;;;;6217552;28;20052;-75
2022/01/26 09:07:03;;;;;;;5.80;1.05;;;19.60;50.20;;;;;;6217551;28;20037;-74
2022/01/26 09:10:06;;;;;;;4.10;0.85;;;19.70;50.20;;;;;;6216502;28;20037;-74
2022/01/26 09:13:07;;;;;;;8.13;1.00;;;19.70;49.80;;;;;;6215772;28;20538;-74
2022/01/26 09:16:08;;;;;;;1.55;1.10;;;19.70;49.80;;;;;;6231354;28;20281;-73
2022/01/26 09:19:20;;;;;;;6.88;1.17;;;19.70;49.90;;;;;;6216903;28;20076;-74
2022/01/26 09:22:21;;;;;;;3.20;1.30;;;19.70;50.40;;;;;;6206867;28;20030;-74
2022/01/26 09:25:21;;;;;;;7.93;1.70;;;19.70;49.80;;;;;;6192750;28;20089;-73
2022/01/26 09:28:24;;;;;;;9.95;1.50;;;19.80;49.80;;;;;;6192369;28;20022;-74
2022/01/26 09:31:25;;;;;;;58.53;4.28;;;19.80;49.70;;;;;;6192883;28;20041;-74
2022/01/26 09:34:29;;;;;;;10.80;1.83;;;19.80;50.20;;;;;;6219145;28;20045;-75
2022/01/26 09:37:29;;;;;;;9.45;1.40;;;19.90;49.50;;;;;;6241546;28;20069;-75
2022/01/26 09:40:30;;;;;;;4.32;1.50;;;19.90;49.70;;;;;;6238592;28;20033;-76
2022/01/26 09:43:32;;;;;;;3.67;1.23;;;19.80;49.60;;;;;;6217198;28;20026;-75
2022/01/26 09:46:33;;;;;;;7.05;1.48;;;19.80;49.90;;;;;;6232174;28;20034;-76
2022/01/26 09:49:35;;;;;;;12.07;2.70;;;19.90;49.60;;;;;;6215152;28;20545;-74
2022/01/26 09:52:41;;;;;;;12.95;2.35;;;19.80;49.70;;;;;;6191343;28;20039;-76
2022/01/26 09:55:42;;;;;;;13.88;2.15;;;19.90;49.70;;;;;;6192289;28;20042;-76
2022/01/26 09:58:43;;;;;;;18.48;2.20;;;19.80;49.70;;;;;;6192426;28;20382;-75
2022/01/26 10:01:46;;;;;;;15.75;3.00;;;19.90;49.60;;;;;;6200145;28;20030;-75
2022/01/26 10:04:47;;;;;;;14.70;2.45;;;19.80;49.70;;;;;;6208804;28;20022;-74
2022/01/26 10:17:41;;;;;;;14.07;2.72;;;19.90;49.50;;;;;;6199820;28;20433;-75
2022/01/26 10:20:45;;;;;;;14.05;2.38;;;19.90;49.50;;;;;;6199764;28;20037;-75
2022/01/26 10:23:45;;;;;;;9.20;2.20;;;19.90;49.50;;;;;;6199168;28;20031;-75
2022/01/26 10:26:50;;;;;;;14.10;1.98;;;19.90;49.40;;;;;;6193901;28;20027;-79
2022/01/26 10:29:51;;;;;;;14.07;2.20;;;19.90;49.40;;;;;;6175285;28;20117;-76
2022/01/26 10:32:51;;;;;;;13.85;2.15;;;19.90;49.90;;;;;;6201910;28;20039;-77
2022/01/26 10:36:00;;;;;;;10.73;1.85;;;19.90;50.00;;;;;;6175738;28;20034;-76
2022/01/26 10:39:09;;;;;;;8.43;1.70;;;19.90;49.70;;;;;;6175319;28;20468;-76
2022/01/26 10:42:17;;;;;;;11.25;2.30;;;19.90;49.60;;;;;;6194371;28;20453;-76
2022/01/26 10:45:30;;;;;;;7.75;1.65;;;19.90;49.40;;;;;;6199343;28;20156;-76
2022/01/26 10:48:40;;;;;;;6.45;1.50;;;19.90;49.40;;;;;;6199608;28;20104;-77
2022/01/26 10:54:48;;;;;;;6.85;1.70;;;19.90;49.30;;;;;;6175116;28;20563;-76
2022/01/26 10:57:49;;;;;;;15.40;1.80;;;19.90;49.30;;;;;;6174704;28;20081;-75
2022/01/26 11:00:52;;;;;;;2.95;1.25;;;20.00;49.40;;;;;;6175188;28;20481;-76
2022/01/26 11:03:52;;;;;;;3.70;1.50;;;19.90;49.20;;;;;;6212656;28;20097;-75
2022/01/26 11:06:54;;;;;;;5.63;1.45;;;19.90;49.40;;;;;;6197844;28;20034;-76
2022/01/26 11:09:54;;;;;;;9.77;1.88;;;19.90;49.60;;;;;;6196947;28;20054;-75
2022/01/26 11:12:55;;;;;;;5.75;1.40;;;19.90;50.20;;;;;;6197530;28;20034;-75
2022/01/26 11:16:12;;;;;;;11.73;1.60;;;19.90;50.00;;;;;;6196377;28;20027;-77
2022/01/26 11:19:14;;;;;;;3.63;1.30;;;19.90;50.90;;;;;;6197524;28;20030;-74
2022/01/26 11:22:15;;;;;;;15.27;1.73;;;19.90;50.10;;;;;;6196884;28;20494;-74
2022/01/26 11:25:15;;;;;;;7.68;1.48;;;20.00;51.30;;;;;;6197010;28;20022;-74
2022/01/26 11:28:22;;;;;;;7.18;1.65;;;20.00;50.40;;;;;;6178276;28;20485;-74
2022/01/26 11:31:24;;;;;;;14.15;1.25;;;20.00;49.90;;;;;;6173337;28;20065;-74
2022/01/26 11:34:27;;;;;;;5.03;1.45;;;20.00;49.70;;;;;;6195062;28;20061;-75
2022/01/26 11:37:50;;;;;;;7.07;1.30;;;20.10;49.60;;;;;;6195380;28;20031;-74
2022/01/26 11:47:58;;;;;;;4.13;1.20;;;20.10;50.50;;;;;;6196737;28;20148;-74
2022/01/26 11:51:00;;;;;;;3.80;0.98;;;20.10;49.70;;;;;;6196522;28;20106;-75
2022/01/26 11:54:29;;;;;;;6.70;1.45;;;20.10;49.90;;;;;;6196251;28;20058;-75
2022/01/26 11:58:05;;;;;;;3.88;1.17;;;20.00;49.90;;;;;;6186589;28;20049;-74
2022/01/26 12:04:18;;;;;;;4.53;1.17;;;20.00;50.10;;;;;;6196089;28;20033;-74
2022/01/26 12:07:23;;;;;;;3.90;1.25;;;20.00;50.00;;;;;;6195567;28;20027;-74
2022/01/26 12:10:29;;;;;;;1.73;0.93;;;20.00;49.90;;;;;;6196827;28;20029;-74
2022/01/26 12:13:31;;;;;;;10.07;2.70;;;20.00;49.50;;;;;;6186437;28;20038;-74
2022/01/26 12:16:35;;;;;;;5.95;2.92;;;19.90;48.30;;;;;;6195959;28;20032;-75
2022/01/26 12:19:50;;;;;;;6.40;2.80;;;19.90;47.10;;;;;;6195712;28;20420;-74
2022/01/26 12:37:04;;;;;;;6.53;3.25;;;19.80;45.50;;;;;;6184374;28;20046;-74
2022/01/26 12:43:39;;;;;;;8.73;3.90;;;19.80;44.00;;;;;;6194792;28;20046;-75
2022/01/26 12:46:41;;;;;;;6.67;3.53;;;19.70;43.80;;;;;;6194628;28;20366;-74
2022/01/26 12:49:42;;;;;;;6.82;3.42;;;19.70;43.70;;;;;;6193852;28;20277;-74
2022/01/26 12:52:48;;;;;;;5.57;3.80;;;19.70;43.60;;;;;;6194510;28;20422;-74
2022/01/26 12:55:54;;;;;;;6.22;3.50;;;19.70;43.00;;;;;;6194493;28;20060;-74
2022/01/26 12:59:04;;;;;;;5.53;3.58;;;19.70;42.80;;;;;;6195558;28;20037;-74
2022/01/26 13:02:04;;;;;;;7.40;3.53;;;19.70;43.10;;;;;;6194224;28;20050;-75
2022/01/26 13:05:06;;;;;;;6.38;2.70;;;19.70;43.50;;;;;;6193193;28;20034;-74
2022/01/26 13:08:08;;;;;;;3.70;2.55;;;19.70;43.70;;;;;;6194556;28;20537;-74
2022/01/26 13:11:09;;;;;;;4.47;2.25;;;19.70;44.30;;;;;;6194396;28;20027;-74
2022/01/26 13:14:23;;;;;;;4.07;2.10;;;19.70;44.50;;;;;;6194447;28;20085;-74
2022/01/26 13:20:58;;;;;;;3.85;2.08;;;19.70;45.10;;;;;;6194759;28;20034;-74
2022/01/26 13:24:10;;;;;;;5.28;2.80;;;19.70;45.00;;;;;;6168887;28;20045;-74
2022/01/26 13:27:19;;;;;;;4.70;2.15;;;19.70;45.30;;;;;;6180436;28;20057;-74
2022/01/26 13:30:47;;;;;;;7.20;2.25;;;19.70;45.60;;;;;;6194509;28;20030;-74
2022/01/26 13:37:35;;;;;;;4.55;2.30;;;19.70;46.20;;;;;;6169991;28;20022;-74
2022/01/26 13:40:51;;;;;;;6.65;2.90;;;19.70;46.30;;;;;;6175312;28;20488;-74
2022/01/26 13:54:28;;;;;;;6.20;2.85;;;19.70;46.90;;;;;;6193407;28;20042;-74
2022/01/26 14:01:01;;;;;;;7.63;3.10;;;19.70;46.90;;;;;;6199101;28;20035;-76
2022/01/26 14:04:05;;;;;;;6.00;2.92;;;19.70;47.30;;;;;;6198250;28;20501;-75
2022/01/26 14:07:06;;;;;;;4.72;2.38;;;19.70;47.50;;;;;;6198567;28;20030;-75
2022/01/26 14:10:07;;;;;;;8.68;3.47;;;19.80;47.60;;;;;;6197865;28;20034;-75
2022/01/26 14:13:07;;;;;;;4.78;2.60;;;19.80;47.70;;;;;;6196754;28;20038;-75
2022/01/26 14:16:10;;;;;;;4.78;2.65;;;19.80;47.80;;;;;;6179969;28;20058;-75
2022/01/26 14:22:33;;;;;;;5.47;2.95;;;19.70;47.80;;;;;;6173259;28;20039;-75
2022/01/26 14:25:33;;;;;;;5.05;2.45;;;19.70;48.10;;;;;;6173770;28;20047;-74
2022/01/26 14:28:35;;;;;;;9.52;2.90;;;19.70;48.10;;;;;;6193847;28;20030;-77
2022/01/26 14:31:57;;;;;;;5.28;2.53;;;19.70;48.20;;;;;;6204256;28;20468;-75
2022/01/26 14:50:57;;;;;;;4.97;2.80;;;19.70;48.40;;;;;;6197408;28;20034;-75
2022/01/26 14:52:15;;;;;;;5.65;2.45;;;19.70;48.50;;;;;;6196942;28;20042;-75
2022/01/26 15:34:40;;;;;;;6.88;2.67;;;19.70;48.20;;;;;;6199008;28;20547;-75
2022/01/26 15:41:18;;;;;;;5.88;3.00;;;19.70;48.10;;;;;;6195932;28;20034;-74
2022/01/26 15:50:59;;;;;;;5.28;2.63;;;19.70;48.20;;;;;;6194909;28;20075;-75
2022/01/26 16:07:27;;;;;;;4.00;2.35;;;19.70;48.30;;;;;;6171603;28;20027;-75
2022/01/26 16:17:34;;;;;;;8.68;2.85;;;19.70;48.40;;;;;;6171806;28;20035;-76
2022/01/26 16:21:05;;;;;;;5.55;2.20;;;19.70;48.50;;;;;;6171263;28;20037;-76
2022/01/26 17:46:42;;;;;;;40.63;21.70;;;19.50;43.90;;;;;;6197125;28;20034;-75
2022/01/26 18:04:23;;;;;;;30.50;14.52;;;19.50;44.40;;;;;;6190564;28;20030;-76
2022/01/26 18:16:58;;;;;;;19.98;11.77;;;19.50;45.60;;;;;;6196430;28;20033;-75
2022/01/26 18:26:43;;;;;;;17.88;9.40;;;19.60;46.00;;;;;;6189719;28;20094;-75
2022/01/26 18:33:11;;;;;;;22.20;8.82;;;19.60;46.20;;;;;;6161378;28;20401;-75
2022/01/26 18:40:16;;;;;;;21.10;8.00;;;19.60;46.20;;;;;;6171491;28;20038;-75
2022/01/26 18:49:39;;;;;;;26.35;8.18;;;19.60;46.50;;;;;;6171496;28;20492;-75
2022/01/26 18:52:40;;;;;;;24.73;8.25;;;19.60;46.60;;;;;;6166738;28;20536;-75
2022/01/26 18:55:41;;;;;;;24.80;7.72;;;19.60;46.50;;;;;;6171357;28;20069;-75
2022/01/26 18:58:42;;;;;;;22.80;7.60;;;19.60;46.70;;;;;;6171266;28;20288;-75
2022/01/26 19:01:42;;;;;;;20.42;7.40;;;19.60;46.80;;;;;;6170804;28;20027;-75
2022/01/26 19:04:46;;;;;;;19.38;7.20;;;19.60;46.80;;;;;;6171298;28;20034;-75
2022/01/26 19:07:47;;;;;;;20.27;7.10;;;19.60;46.90;;;;;;6169685;28;20480;-76
2022/01/26 19:10:47;;;;;;;18.83;7.35;;;19.60;47.60;;;;;;6168917;28;20039;-75
2022/01/26 19:13:49;;;;;;;16.77;7.40;;;19.60;46.90;;;;;;6170716;28;20030;-76
2022/01/26 19:17:06;;;;;;;15.52;7.43;;;19.60;47.00;;;;;;6170825;28;20043;-76
2022/01/26 19:26:18;;;;;;;21.83;6.05;;;19.60;47.40;;;;;;6171530;28;20026;-75
2022/01/26 19:32:52;;;;;;;23.10;9.70;;;19.60;47.20;;;;;;6165337;28;20039;-75
2022/01/26 19:43:33;;;;;;;29.45;11.30;;;19.50;45.80;;;;;;6148273;28;20032;-75
2022/01/26 19:46:16;;;;;;;22.20;10.52;;;19.50;46.30;;;;;;6147765;29;20035;-75
2022/01/26 19:52:35;;;;;;;16.67;9.25;;;19.50;46.60;;;;;;6148098;29;20063;-74
2022/01/26 19:55:37;;;;;;;19.73;9.00;;;19.50;46.60;;;;;;6148058;29;20410;-75
2022/01/26 19:58:37;;;;;;;17.83;8.35;;;19.50;46.80;;;;;;6147855;29;20034;-75
2022/01/26 20:01:38;;;;;;;13.63;7.90;;;19.50;46.80;;;;;;6146468;29;20106;-74
2022/01/26 20:04:39;;;;;;;18.70;7.95;;;19.50;46.90;;;;;;6146531;29;20020;-75
2022/01/26 20:07:40;;;;;;;16.58;8.35;;;19.50;46.90;;;;;;6146971;29;20023;-75
2022/01/26 20:10:48;;;;;;;12.20;7.20;;;19.50;47.00;;;;;;6151866;28;20071;-75
2022/01/26 20:13:49;;;;;;;12.65;7.60;;;19.50;47.00;;;;;;6171339;28;20034;-75
2022/01/26 20:16:50;;;;;;;11.93;7.03;;;19.50;47.00;;;;;;6171235;28;20061;-75
2022/01/26 20:19:50;;;;;;;12.18;6.80;;;19.50;46.90;;;;;;6171360;28;20026;-75
2022/01/26 20:22:51;;;;;;;13.82;6.50;;;19.50;47.00;;;;;;6167906;28;20513;-75
2022/01/26 20:25:53;;;;;;;9.68;5.82;;;19.50;47.00;;;;;;6167667;28;20034;-75
2022/01/26 20:28:53;;;;;;;11.25;6.32;;;19.50;47.10;;;;;;6171216;28;20097;-75
2022/01/26 20:31:54;;;;;;;8.05;5.63;;;19.50;47.10;;;;;;6166574;28;20031;-76
2022/01/26 20:34:55;;;;;;;12.88;6.15;;;19.50;47.20;;;;;;6147073;28;20039;-76
2022/01/26 20:37:55;;;;;;;10.40;5.32;;;19.50;47.10;;;;;;6145939;29;20031;-75
2022/01/26 20:40:56;;;;;;;8.80;5.57;;;19.50;47.10;;;;;;6147265;28;20385;-76
2022/01/26 20:43:57;;;;;;;8.68;5.38;;;19.50;47.00;;;;;;6147182;29;20493;-75
2022/01/26 20:46:57;;;;;;;7.57;4.80;;;19.50;47.20;;;;;;6147082;29;20034;-75
2022/01/26 20:49:58;;;;;;;7.55;5.07;;;19.50;47.30;;;;;;6147051;29;20094;-75
2022/01/26 20:52:59;;;;;;;9.23;4.72;;;19.50;47.20;;;;;;6144647;29;20463;-75
2022/01/26 20:56:00;;;;;;;8.95;5.32;;;19.50;47.30;;;;;;6146249;29;20064;-75
2022/01/26 20:59:01;;;;;;;9.15;5.63;;;19.50;47.20;;;;;;6146872;29;20031;-76
2022/01/26 21:02:02;;;;;;;7.88;4.60;;;19.50;47.30;;;;;;6147081;29;20511;-75
2022/01/26 21:05:06;;;;;;;7.60;5.53;;;19.50;47.30;;;;;;6146509;29;20024;-76
2022/01/26 21:08:06;;;;;;;6.65;4.35;;;19.50;47.20;;;;;;6146812;29;20418;-76
2022/01/26 21:11:07;;;;;;;7.25;4.57;;;19.50;47.40;;;;;;6145151;29;20031;-75
2022/01/26 21:14:08;;;;;;;6.90;4.68;;;19.50;47.30;;;;;;6141800;29;20035;-76
2022/01/26 21:17:09;;;;;;;6.47;4.72;;;19.50;47.30;;;;;;6146676;29;20052;-76
2022/01/26 21:20:12;;;;;;;6.55;4.65;;;19.50;47.30;;;;;;6145483;29;20027;-75
2022/01/26 21:23:13;;;;;;;6.40;4.65;;;19.50;47.50;;;;;;6145097;29;20102;-75
2022/01/26 21:26:13;;;;;;;6.47;4.68;;;19.50;47.30;;;;;;6144442;28;20027;-75
2022/01/26 21:29:14;;;;;;;5.75;4.05;;;19.50;47.40;;;;;;6170429;28;20030;-76
2022/01/26 21:32:14;;;;;;;5.78;4.30;;;19.50;47.40;;;;;;6162892;28;20031;-76
2022/01/26 21:35:15;;;;;;;7.70;4.70;;;19.50;47.50;;;;;;6146063;28;20043;-76
2022/01/26 21:38:17;;;;;;;6.93;4.35;;;19.50;47.50;;;;;;6146446;28;20090;-75
2022/01/26 21:41:20;;;;;;;7.30;4.53;;;19.50;47.30;;;;;;6146518;28;20062;-75
2022/01/26 21:44:20;;;;;;;6.43;4.40;;;19.50;47.50;;;;;;6146169;29;20025;-74
2022/01/26 21:47:21;;;;;;;5.68;4.10;;;19.50;47.60;;;;;;6144261;29;20031;-74
2022/01/26 21:50:21;;;;;;;6.10;4.63;;;19.50;47.50;;;;;;6144266;29;20386;-74
2022/01/26 21:53:22;;;;;;;7.25;4.78;;;19.50;47.50;;;;;;6145884;29;20140;-75
2022/01/26 21:56:24;;;;;;;5.47;4.15;;;19.50;47.50;;;;;;6146253;29;20662;-74
2022/01/26 21:59:24;;;;;;;4.72;3.65;;;19.50;47.60;;;;;;6145806;28;20035;-74
2022/01/26 22:02:25;;;;;;;5.88;4.25;;;19.50;47.50;;;;;;6150094;29;20033;-74
2022/01/26 22:05:26;;;;;;;5.80;3.75;;;19.50;47.60;;;;;;6150168;29;20034;-75
2022/01/26 22:08:26;;;;;;;4.40;3.35;;;19.50;47.60;;;;;;6172305;28;20027;-75